sensor_id;sensor_type;location;lat;lon;timestamp;temperature;humidity
66102;HTU21D;52883;51.094;5.880;2023-08-08T00:02:20;10.98;118.99
66102;HTU21D;52883;51.094;5.880;2023-08-08T00:04:45;10.96;118.99
66102;HTU21D;52883;51.094;5.880;2023-08-08T00:07:11;11.00;118.99
66102;HTU21D;52883;51.094;5.880;2023-08-08T00:09:37;10.97;118.99
66102;HTU21D;52883;51.094;5.880;2023-08-08T00:12:03;10.93;118.99
66102;HTU21D;52883;51.094;5.880;2023-08-08T00:14:29;10.90;118.99
66102;HTU21D;52883;51.094;5.880;2023-08-08T00:16:55;10.83;118.99
66102;HTU21D;52883;51.094;5.880;2023-08-08T00:19:20;10.79;118.99
66102;HTU21D;52883;51.094;5.880;2023-08-08T00:21:46;10.82;118.99
66102;HTU21D;52883;51.094;5.880;2023-08-08T00:24:11;10.81;118.99
66102;HTU21D;52883;51.094;5.880;2023-08-08T00:26:37;10.74;118.99
66102;HTU21D;52883;51.094;5.880;2023-08-08T00:29:02;10.70;118.99
66102;HTU21D;52883;51.094;5.880;2023-08-08T00:31:28;10.65;118.99
66102;HTU21D;52883;51.094;5.880;2023-08-08T00:33:54;10.63;118.99
66102;HTU21D;52883;51.094;5.880;2023-08-08T00:36:19;10.66;118.99
66102;HTU21D;52883;51.094;5.880;2023-08-08T00:38:45;10.68;118.99
66102;HTU21D;52883;51.094;5.880;2023-08-08T00:41:11;10.71;118.99
66102;HTU21D;52883;51.094;5.880;2023-08-08T00:43:37;10.71;118.99
66102;HTU21D;52883;51.094;5.880;2023-08-08T00:46:03;10.70;118.99
66102;HTU21D;52883;51.094;5.880;2023-08-08T00:48:30;10.71;118.99
66102;HTU21D;52883;51.094;5.880;2023-08-08T00:50:56;10.74;118.99
66102;HTU21D;52883;51.094;5.880;2023-08-08T00:53:22;10.77;118.99
66102;HTU21D;52883;51.094;5.880;2023-08-08T00:55:55;10.79;118.99
66102;HTU21D;52883;51.094;5.880;2023-08-08T00:58:21;10.83;118.99
66102;HTU21D;52883;51.094;5.880;2023-08-08T01:00:46;10.86;118.99
66102;HTU21D;52883;51.094;5.880;2023-08-08T01:03:12;10.84;118.99
66102;HTU21D;52883;51.094;5.880;2023-08-08T01:05:43;10.79;118.99
66102;HTU21D;52883;51.094;5.880;2023-08-08T01:08:18;10.77;118.99
66102;HTU21D;52883;51.094;5.880;2023-08-08T01:10:47;10.77;118.99
66102;HTU21D;52883;51.094;5.880;2023-08-08T01:13:19;10.77;118.99
66102;HTU21D;52883;51.094;5.880;2023-08-08T01:15:48;10.80;118.99
66102;HTU21D;52883;51.094;5.880;2023-08-08T01:18:16;10.83;118.99
66102;HTU21D;52883;51.094;5.880;2023-08-08T01:20:43;10.85;118.99
66102;HTU21D;52883;51.094;5.880;2023-08-08T01:23:30;10.86;118.99
66102;HTU21D;52883;51.094;5.880;2023-08-08T01:25:59;10.95;118.99
66102;HTU21D;52883;51.094;5.880;2023-08-08T01:28:26;11.03;118.99
66102;HTU21D;52883;51.094;5.880;2023-08-08T01:30:51;11.11;118.99
66102;HTU21D;52883;51.094;5.880;2023-08-08T01:33:18;11.19;118.99
66102;HTU21D;52883;51.094;5.880;2023-08-08T01:35:47;11.29;118.99
66102;HTU21D;52883;51.094;5.880;2023-08-08T01:38:38;11.40;118.99
66102;HTU21D;52883;51.094;5.880;2023-08-08T01:41:07;11.45;118.99
66102;HTU21D;52883;51.094;5.880;2023-08-08T01:43:35;11.47;118.99
66102;HTU21D;52883;51.094;5.880;2023-08-08T01:46:03;11.47;118.99
66102;HTU21D;52883;51.094;5.880;2023-08-08T01:48:29;11.45;118.99
66102;HTU21D;52883;51.094;5.880;2023-08-08T01:50:55;11.38;118.99
66102;HTU21D;52883;51.094;5.880;2023-08-08T01:53:21;11.36;118.99
66102;HTU21D;52883;51.094;5.880;2023-08-08T01:55:46;11.32;118.99
66102;HTU21D;52883;51.094;5.880;2023-08-08T01:58:12;11.28;118.99
66102;HTU21D;52883;51.094;5.880;2023-08-08T02:00:38;11.24;118.99
66102;HTU21D;52883;51.094;5.880;2023-08-08T02:03:03;11.23;118.99
66102;HTU21D;52883;51.094;5.880;2023-08-08T02:05:29;11.19;118.99
66102;HTU21D;52883;51.094;5.880;2023-08-08T02:07:56;11.22;118.99
66102;HTU21D;52883;51.094;5.880;2023-08-08T02:10:22;11.18;118.99
66102;HTU21D;52883;51.094;5.880;2023-08-08T02:12:48;11.18;118.99
66102;HTU21D;52883;51.094;5.880;2023-08-08T02:15:13;11.17;118.99
66102;HTU21D;52883;51.094;5.880;2023-08-08T02:17:40;11.17;118.99
66102;HTU21D;52883;51.094;5.880;2023-08-08T02:20:07;11.22;118.99
66102;HTU21D;52883;51.094;5.880;2023-08-08T02:22:34;11.26;118.99
66102;HTU21D;52883;51.094;5.880;2023-08-08T02:25:00;11.24;118.99
66102;HTU21D;52883;51.094;5.880;2023-08-08T02:27:25;11.18;118.99
66102;HTU21D;52883;51.094;5.880;2023-08-08T02:29:51;11.14;118.99
66102;HTU21D;52883;51.094;5.880;2023-08-08T02:32:16;11.12;118.99
66102;HTU21D;52883;51.094;5.880;2023-08-08T02:34:42;11.05;118.99
66102;HTU21D;52883;51.094;5.880;2023-08-08T02:37:08;11.03;118.99
66102;HTU21D;52883;51.094;5.880;2023-08-08T02:39:34;11.05;118.99
66102;HTU21D;52883;51.094;5.880;2023-08-08T02:41:59;11.09;118.99
66102;HTU21D;52883;51.094;5.880;2023-08-08T02:44:26;11.10;118.99
66102;HTU21D;52883;51.094;5.880;2023-08-08T02:46:51;11.15;118.99
66102;HTU21D;52883;51.094;5.880;2023-08-08T02:49:17;11.10;118.99
66102;HTU21D;52883;51.094;5.880;2023-08-08T02:51:43;11.07;118.99
66102;HTU21D;52883;51.094;5.880;2023-08-08T02:54:09;11.08;118.99
66102;HTU21D;52883;51.094;5.880;2023-08-08T02:56:36;11.08;118.99
66102;HTU21D;52883;51.094;5.880;2023-08-08T02:59:02;11.10;118.99
66102;HTU21D;52883;51.094;5.880;2023-08-08T03:01:28;11.10;118.99
66102;HTU21D;52883;51.094;5.880;2023-08-08T03:03:54;11.12;118.99
66102;HTU21D;52883;51.094;5.880;2023-08-08T03:06:22;11.14;118.99
66102;HTU21D;52883;51.094;5.880;2023-08-08T03:08:49;11.15;118.99
66102;HTU21D;52883;51.094;5.880;2023-08-08T03:11:15;11.15;118.99
66102;HTU21D;52883;51.094;5.880;2023-08-08T03:13:41;11.17;118.99
66102;HTU21D;52883;51.094;5.880;2023-08-08T03:16:07;11.13;118.99
66102;HTU21D;52883;51.094;5.880;2023-08-08T03:18:33;11.16;118.99
66102;HTU21D;52883;51.094;5.880;2023-08-08T03:20:59;11.15;118.99
66102;HTU21D;52883;51.094;5.880;2023-08-08T03:23:25;11.14;118.99
66102;HTU21D;52883;51.094;5.880;2023-08-08T03:25:52;11.13;118.99
66102;HTU21D;52883;51.094;5.880;2023-08-08T03:28:18;11.17;118.99
66102;HTU21D;52883;51.094;5.880;2023-08-08T03:30:44;11.17;118.99
66102;HTU21D;52883;51.094;5.880;2023-08-08T03:33:11;11.23;118.99
66102;HTU21D;52883;51.094;5.880;2023-08-08T03:35:36;11.23;118.99
66102;HTU21D;52883;51.094;5.880;2023-08-08T03:38:02;11.24;118.99
66102;HTU21D;52883;51.094;5.880;2023-08-08T03:40:28;11.24;118.99
66102;HTU21D;52883;51.094;5.880;2023-08-08T03:42:54;11.27;118.99
66102;HTU21D;52883;51.094;5.880;2023-08-08T03:45:19;11.28;118.99
66102;HTU21D;52883;51.094;5.880;2023-08-08T03:47:45;11.28;118.99
66102;HTU21D;52883;51.094;5.880;2023-08-08T03:50:11;11.24;118.99
66102;HTU21D;52883;51.094;5.880;2023-08-08T03:52:37;11.22;118.99
66102;HTU21D;52883;51.094;5.880;2023-08-08T03:55:04;11.30;118.99
66102;HTU21D;52883;51.094;5.880;2023-08-08T03:57:30;11.37;118.99
66102;HTU21D;52883;51.094;5.880;2023-08-08T03:59:56;11.36;118.99
66102;HTU21D;52883;51.094;5.880;2023-08-08T04:02:22;11.33;118.99
66102;HTU21D;52883;51.094;5.880;2023-08-08T04:04:48;11.34;118.99
66102;HTU21D;52883;51.094;5.880;2023-08-08T04:07:13;11.34;118.99
66102;HTU21D;52883;51.094;5.880;2023-08-08T04:09:39;11.32;118.99
66102;HTU21D;52883;51.094;5.880;2023-08-08T04:12:05;11.30;118.99
66102;HTU21D;52883;51.094;5.880;2023-08-08T04:14:31;11.27;118.99
66102;HTU21D;52883;51.094;5.880;2023-08-08T04:16:58;11.24;118.99
66102;HTU21D;52883;51.094;5.880;2023-08-08T04:19:23;11.25;118.99
66102;HTU21D;52883;51.094;5.880;2023-08-08T04:21:49;11.29;118.99
66102;HTU21D;52883;51.094;5.880;2023-08-08T04:24:15;11.38;118.99
66102;HTU21D;52883;51.094;5.880;2023-08-08T04:26:40;11.38;118.99
66102;HTU21D;52883;51.094;5.880;2023-08-08T04:29:06;11.42;118.99
66102;HTU21D;52883;51.094;5.880;2023-08-08T04:31:32;11.45;118.99
66102;HTU21D;52883;51.094;5.880;2023-08-08T04:33:57;11.47;118.99
66102;HTU21D;52883;51.094;5.880;2023-08-08T04:36:27;11.48;118.99
66102;HTU21D;52883;51.094;5.880;2023-08-08T04:38:53;11.49;118.99
66102;HTU21D;52883;51.094;5.880;2023-08-08T04:41:19;11.56;118.99
66102;HTU21D;52883;51.094;5.880;2023-08-08T04:43:45;11.59;118.99
66102;HTU21D;52883;51.094;5.880;2023-08-08T04:46:10;11.61;118.99
66102;HTU21D;52883;51.094;5.880;2023-08-08T04:48:37;11.68;118.99
66102;HTU21D;52883;51.094;5.880;2023-08-08T04:51:07;11.78;118.99
66102;HTU21D;52883;51.094;5.880;2023-08-08T04:53:33;11.93;118.99
66102;HTU21D;52883;51.094;5.880;2023-08-08T04:55:59;12.04;118.99
66102;HTU21D;52883;51.094;5.880;2023-08-08T04:58:24;12.16;118.99
66102;HTU21D;52883;51.094;5.880;2023-08-08T05:00:50;12.28;118.99
66102;HTU21D;52883;51.094;5.880;2023-08-08T05:03:17;12.38;118.99
66102;HTU21D;52883;51.094;5.880;2023-08-08T05:05:43;12.44;118.99
66102;HTU21D;52883;51.094;5.880;2023-08-08T05:08:12;12.49;118.99
66102;HTU21D;52883;51.094;5.880;2023-08-08T05:10:38;12.56;118.99
66102;HTU21D;52883;51.094;5.880;2023-08-08T05:13:04;12.60;118.99
66102;HTU21D;52883;51.094;5.880;2023-08-08T05:15:30;12.71;118.99
66102;HTU21D;52883;51.094;5.880;2023-08-08T05:17:55;13.12;118.99
66102;HTU21D;52883;51.094;5.880;2023-08-08T05:20:21;13.77;118.99
66102;HTU21D;52883;51.094;5.880;2023-08-08T05:22:47;14.27;118.99
66102;HTU21D;52883;51.094;5.880;2023-08-08T05:25:13;14.34;118.99
66102;HTU21D;52883;51.094;5.880;2023-08-08T05:27:39;14.32;118.99
66102;HTU21D;52883;51.094;5.880;2023-08-08T05:30:06;14.55;118.99
66102;HTU21D;52883;51.094;5.880;2023-08-08T05:32:32;14.69;118.99
66102;HTU21D;52883;51.094;5.880;2023-08-08T05:34:57;15.44;118.99
66102;HTU21D;52883;51.094;5.880;2023-08-08T05:37:26;16.44;118.99
66102;HTU21D;52883;51.094;5.880;2023-08-08T05:39:53;17.20;118.99
66102;HTU21D;52883;51.094;5.880;2023-08-08T05:42:19;17.64;118.99
66102;HTU21D;52883;51.094;5.880;2023-08-08T05:44:45;18.22;118.99
66102;HTU21D;52883;51.094;5.880;2023-08-08T05:47:10;18.82;118.99
66102;HTU21D;52883;51.094;5.880;2023-08-08T05:49:37;19.15;118.99
66102;HTU21D;52883;51.094;5.880;2023-08-08T05:52:03;19.42;118.99
66102;HTU21D;52883;51.094;5.880;2023-08-08T05:54:29;19.15;118.99
66102;HTU21D;52883;51.094;5.880;2023-08-08T05:56:54;19.66;118.99
66102;HTU21D;52883;51.094;5.880;2023-08-08T05:59:20;19.87;118.99
66102;HTU21D;52883;51.094;5.880;2023-08-08T06:01:46;19.56;118.99
66102;HTU21D;52883;51.094;5.880;2023-08-08T06:04:12;19.83;118.99
66102;HTU21D;52883;51.094;5.880;2023-08-08T06:06:37;20.39;118.99
66102;HTU21D;52883;51.094;5.880;2023-08-08T06:09:04;20.93;118.99
66102;HTU21D;52883;51.094;5.880;2023-08-08T06:11:29;20.93;118.99
66102;HTU21D;52883;51.094;5.880;2023-08-08T06:13:55;21.39;118.99
66102;HTU21D;52883;51.094;5.880;2023-08-08T06:16:21;21.49;118.99
66102;HTU21D;52883;51.094;5.880;2023-08-08T06:18:47;21.66;118.99
66102;HTU21D;52883;51.094;5.880;2023-08-08T06:21:13;22.26;118.99
66102;HTU21D;52883;51.094;5.880;2023-08-08T06:23:38;22.20;118.99
66102;HTU21D;52883;51.094;5.880;2023-08-08T06:26:04;21.53;118.99
66102;HTU21D;52883;51.094;5.880;2023-08-08T06:28:30;21.09;118.99
66102;HTU21D;52883;51.094;5.880;2023-08-08T06:30:57;21.47;118.99
66102;HTU21D;52883;51.094;5.880;2023-08-08T06:33:23;22.18;118.99
66102;HTU21D;52883;51.094;5.880;2023-08-08T06:35:49;22.76;118.99
66102;HTU21D;52883;51.094;5.880;2023-08-08T06:38:15;22.70;118.99
66102;HTU21D;52883;51.094;5.880;2023-08-08T06:40:40;22.44;118.99
66102;HTU21D;52883;51.094;5.880;2023-08-08T06:43:07;21.95;118.99
66102;HTU21D;52883;51.094;5.880;2023-08-08T06:45:32;21.50;118.99
66102;HTU21D;52883;51.094;5.880;2023-08-08T06:47:58;21.34;118.99
66102;HTU21D;52883;51.094;5.880;2023-08-08T06:50:24;21.75;118.99
66102;HTU21D;52883;51.094;5.880;2023-08-08T06:52:52;22.33;118.99
66102;HTU21D;52883;51.094;5.880;2023-08-08T06:55:18;22.21;118.99
66102;HTU21D;52883;51.094;5.880;2023-08-08T06:57:43;21.91;118.99
66102;HTU21D;52883;51.094;5.880;2023-08-08T07:00:09;21.37;118.99
66102;HTU21D;52883;51.094;5.880;2023-08-08T07:02:37;20.70;118.99
66102;HTU21D;52883;51.094;5.880;2023-08-08T07:05:03;19.98;118.99
66102;HTU21D;52883;51.094;5.880;2023-08-08T07:07:29;19.38;118.99
66102;HTU21D;52883;51.094;5.880;2023-08-08T07:09:56;18.98;118.99
66102;HTU21D;52883;51.094;5.880;2023-08-08T07:12:22;18.77;118.99
66102;HTU21D;52883;51.094;5.880;2023-08-08T07:14:47;18.54;118.99
66102;HTU21D;52883;51.094;5.880;2023-08-08T07:17:13;18.46;118.99
66102;HTU21D;52883;51.094;5.880;2023-08-08T07:19:38;18.53;118.99
66102;HTU21D;52883;51.094;5.880;2023-08-08T07:22:04;18.56;118.99
66102;HTU21D;52883;51.094;5.880;2023-08-08T07:24:30;18.38;118.99
66102;HTU21D;52883;51.094;5.880;2023-08-08T07:26:57;18.15;118.99
66102;HTU21D;52883;51.094;5.880;2023-08-08T07:29:23;17.95;118.99
66102;HTU21D;52883;51.094;5.880;2023-08-08T07:31:49;17.87;118.99
66102;HTU21D;52883;51.094;5.880;2023-08-08T07:34:14;17.80;118.99
66102;HTU21D;52883;51.094;5.880;2023-08-08T07:36:40;17.83;118.99
66102;HTU21D;52883;51.094;5.880;2023-08-08T07:39:05;18.03;118.99
66102;HTU21D;52883;51.094;5.880;2023-08-08T07:41:31;18.11;118.99
66102;HTU21D;52883;51.094;5.880;2023-08-08T07:43:57;18.24;118.99
66102;HTU21D;52883;51.094;5.880;2023-08-08T07:46:23;18.29;118.99
66102;HTU21D;52883;51.094;5.880;2023-08-08T07:48:48;18.47;118.99
66102;HTU21D;52883;51.094;5.880;2023-08-08T07:51:14;18.52;118.99
66102;HTU21D;52883;51.094;5.880;2023-08-08T07:53:40;18.53;118.99
66102;HTU21D;52883;51.094;5.880;2023-08-08T07:56:05;18.57;118.99
66102;HTU21D;52883;51.094;5.880;2023-08-08T07:58:32;18.51;118.99
66102;HTU21D;52883;51.094;5.880;2023-08-08T08:00:58;18.44;118.99
66102;HTU21D;52883;51.094;5.880;2023-08-08T08:03:26;18.38;118.99
66102;HTU21D;52883;51.094;5.880;2023-08-08T08:05:52;18.33;118.99
66102;HTU21D;52883;51.094;5.880;2023-08-08T08:08:18;18.27;118.99
66102;HTU21D;52883;51.094;5.880;2023-08-08T08:10:44;18.29;118.99
66102;HTU21D;52883;51.094;5.880;2023-08-08T08:13:11;18.42;118.99
66102;HTU21D;52883;51.094;5.880;2023-08-08T08:15:38;18.73;118.99
66102;HTU21D;52883;51.094;5.880;2023-08-08T08:18:03;18.97;118.99
66102;HTU21D;52883;51.094;5.880;2023-08-08T08:20:29;19.28;118.99
66102;HTU21D;52883;51.094;5.880;2023-08-08T08:22:55;19.61;118.99
66102;HTU21D;52883;51.094;5.880;2023-08-08T08:25:20;20.00;118.99
66102;HTU21D;52883;51.094;5.880;2023-08-08T08:27:46;20.54;118.99
66102;HTU21D;52883;51.094;5.880;2023-08-08T08:30:12;21.03;118.99
66102;HTU21D;52883;51.094;5.880;2023-08-08T08:32:40;21.74;118.99
66102;HTU21D;52883;51.094;5.880;2023-08-08T08:35:07;22.88;118.99
66102;HTU21D;52883;51.094;5.880;2023-08-08T08:37:33;23.44;118.99
66102;HTU21D;52883;51.094;5.880;2023-08-08T08:39:59;23.64;118.99
66102;HTU21D;52883;51.094;5.880;2023-08-08T08:42:26;23.70;118.99
66102;HTU21D;52883;51.094;5.880;2023-08-08T08:44:57;23.68;118.99
66102;HTU21D;52883;51.094;5.880;2023-08-08T08:47:25;23.70;118.99
66102;HTU21D;52883;51.094;5.880;2023-08-08T08:49:52;23.65;118.99
66102;HTU21D;52883;51.094;5.880;2023-08-08T08:52:18;23.61;118.99
66102;HTU21D;52883;51.094;5.880;2023-08-08T08:54:45;23.56;118.99
66102;HTU21D;52883;51.094;5.880;2023-08-08T08:57:11;23.49;118.99
66102;HTU21D;52883;51.094;5.880;2023-08-08T08:59:37;23.23;118.99
66102;HTU21D;52883;51.094;5.880;2023-08-08T09:02:03;23.12;118.99
66102;HTU21D;52883;51.094;5.880;2023-08-08T09:04:30;22.99;118.99
66102;HTU21D;52883;51.094;5.880;2023-08-08T09:06:56;22.81;118.99
66102;HTU21D;52883;51.094;5.880;2023-08-08T09:09:22;22.72;118.99
66102;HTU21D;52883;51.094;5.880;2023-08-08T09:11:50;22.73;118.99
66102;HTU21D;52883;51.094;5.880;2023-08-08T09:14:21;22.57;118.99
66102;HTU21D;52883;51.094;5.880;2023-08-08T09:16:47;22.31;118.99
66102;HTU21D;52883;51.094;5.880;2023-08-08T09:19:14;21.97;118.99
66102;HTU21D;52883;51.094;5.880;2023-08-08T09:21:40;21.77;118.99
66102;HTU21D;52883;51.094;5.880;2023-08-08T09:24:06;21.65;118.99
66102;HTU21D;52883;51.094;5.880;2023-08-08T09:26:32;21.44;118.99
66102;HTU21D;52883;51.094;5.880;2023-08-08T09:29:01;21.28;118.99
66102;HTU21D;52883;51.094;5.880;2023-08-08T09:31:27;21.16;118.99
66102;HTU21D;52883;51.094;5.880;2023-08-08T09:33:57;21.13;118.99
66102;HTU21D;52883;51.094;5.880;2023-08-08T09:36:23;21.10;118.99
66102;HTU21D;52883;51.094;5.880;2023-08-08T09:38:49;21.05;118.99
66102;HTU21D;52883;51.094;5.880;2023-08-08T09:41:15;21.00;118.99
66102;HTU21D;52883;51.094;5.880;2023-08-08T09:43:44;21.10;118.99
66102;HTU21D;52883;51.094;5.880;2023-08-08T09:46:10;21.46;118.99
66102;HTU21D;52883;51.094;5.880;2023-08-08T09:48:39;21.75;118.99
66102;HTU21D;52883;51.094;5.880;2023-08-08T09:51:07;22.05;118.99
66102;HTU21D;52883;51.094;5.880;2023-08-08T09:53:34;22.14;118.99
66102;HTU21D;52883;51.094;5.880;2023-08-08T09:56:02;22.03;118.99
66102;HTU21D;52883;51.094;5.880;2023-08-08T09:58:29;21.78;118.99
66102;HTU21D;52883;51.094;5.880;2023-08-08T10:00:54;21.67;118.99
66102;HTU21D;52883;51.094;5.880;2023-08-08T10:03:21;21.74;118.99
66102;HTU21D;52883;51.094;5.880;2023-08-08T10:05:47;21.64;118.99
66102;HTU21D;52883;51.094;5.880;2023-08-08T10:08:17;21.50;118.99
66102;HTU21D;52883;51.094;5.880;2023-08-08T10:10:45;21.32;118.99
66102;HTU21D;52883;51.094;5.880;2023-08-08T10:13:25;21.00;118.99
66102;HTU21D;52883;51.094;5.880;2023-08-08T10:15:51;20.65;118.99
66102;HTU21D;52883;51.094;5.880;2023-08-08T10:18:18;20.31;118.99
66102;HTU21D;52883;51.094;5.880;2023-08-08T10:20:49;19.83;118.99
66102;HTU21D;52883;51.094;5.880;2023-08-08T10:23:16;19.26;118.99
66102;HTU21D;52883;51.094;5.880;2023-08-08T10:25:47;18.74;118.99
66102;HTU21D;52883;51.094;5.880;2023-08-08T10:28:17;18.40;118.99
66102;HTU21D;52883;51.094;5.880;2023-08-08T10:30:49;18.18;118.99
66102;HTU21D;52883;51.094;5.880;2023-08-08T10:33:19;17.96;118.99
66102;HTU21D;52883;51.094;5.880;2023-08-08T10:38:23;17.66;118.99
66102;HTU21D;52883;51.094;5.880;2023-08-08T10:40:59;17.49;118.99
66102;HTU21D;52883;51.094;5.880;2023-08-08T10:43:29;17.36;118.99
66102;HTU21D;52883;51.094;5.880;2023-08-08T10:46:00;17.31;118.99
66102;HTU21D;52883;51.094;5.880;2023-08-08T10:48:26;17.32;118.99
66102;HTU21D;52883;51.094;5.880;2023-08-08T10:50:57;17.39;118.99
66102;HTU21D;52883;51.094;5.880;2023-08-08T10:53:28;17.46;118.99
66102;HTU21D;52883;51.094;5.880;2023-08-08T10:56:01;17.48;118.99
66102;HTU21D;52883;51.094;5.880;2023-08-08T10:58:39;17.54;118.99
66102;HTU21D;52883;51.094;5.880;2023-08-08T11:01:05;17.52;118.99
66102;HTU21D;52883;51.094;5.880;2023-08-08T11:03:37;17.48;118.99
66102;HTU21D;52883;51.094;5.880;2023-08-08T11:06:04;17.26;118.99
66102;HTU21D;52883;51.094;5.880;2023-08-08T11:08:31;16.92;118.99
66102;HTU21D;52883;51.094;5.880;2023-08-08T11:10:58;16.47;118.99
66102;HTU21D;52883;51.094;5.880;2023-08-08T11:13:25;16.08;118.99
66102;HTU21D;52883;51.094;5.880;2023-08-08T11:15:51;15.87;118.99
66102;HTU21D;52883;51.094;5.880;2023-08-08T11:18:17;15.84;118.99
66102;HTU21D;52883;51.094;5.880;2023-08-08T11:20:43;15.91;118.99
66102;HTU21D;52883;51.094;5.880;2023-08-08T11:23:10;16.26;118.99
66102;HTU21D;52883;51.094;5.880;2023-08-08T11:25:41;16.87;118.99
66102;HTU21D;52883;51.094;5.880;2023-08-08T11:28:10;17.08;118.99
66102;HTU21D;52883;51.094;5.880;2023-08-08T11:30:41;17.05;118.99
66102;HTU21D;52883;51.094;5.880;2023-08-08T11:33:07;16.87;118.99
66102;HTU21D;52883;51.094;5.880;2023-08-08T11:35:34;16.77;118.99
66102;HTU21D;52883;51.094;5.880;2023-08-08T11:38:00;16.93;118.99
66102;HTU21D;52883;51.094;5.880;2023-08-08T11:40:28;17.48;118.99
66102;HTU21D;52883;51.094;5.880;2023-08-08T11:42:56;17.88;118.99
66102;HTU21D;52883;51.094;5.880;2023-08-08T11:45:23;17.99;118.99
66102;HTU21D;52883;51.094;5.880;2023-08-08T11:47:54;17.99;118.99
66102;HTU21D;52883;51.094;5.880;2023-08-08T11:50:23;18.15;118.99
66102;HTU21D;52883;51.094;5.880;2023-08-08T11:52:51;18.46;118.99
66102;HTU21D;52883;51.094;5.880;2023-08-08T11:55:18;18.92;118.99
66102;HTU21D;52883;51.094;5.880;2023-08-08T11:57:48;19.41;118.99
66102;HTU21D;52883;51.094;5.880;2023-08-08T12:00:14;19.63;118.99
66102;HTU21D;52883;51.094;5.880;2023-08-08T12:02:42;19.97;118.99
66102;HTU21D;52883;51.094;5.880;2023-08-08T12:05:10;20.30;118.99
66102;HTU21D;52883;51.094;5.880;2023-08-08T12:07:42;20.64;118.99
66102;HTU21D;52883;51.094;5.880;2023-08-08T12:10:16;21.17;118.99
66102;HTU21D;52883;51.094;5.880;2023-08-08T12:12:43;21.37;118.99
66102;HTU21D;52883;51.094;5.880;2023-08-08T12:15:09;21.53;118.99
66102;HTU21D;52883;51.094;5.880;2023-08-08T12:17:39;21.40;118.99
66102;HTU21D;52883;51.094;5.880;2023-08-08T12:20:07;21.22;118.99
66102;HTU21D;52883;51.094;5.880;2023-08-08T12:22:33;21.08;118.99
66102;HTU21D;52883;51.094;5.880;2023-08-08T12:24:59;20.88;118.99
66102;HTU21D;52883;51.094;5.880;2023-08-08T12:27:25;21.31;118.99
66102;HTU21D;52883;51.094;5.880;2023-08-08T12:29:51;21.99;118.99
66102;HTU21D;52883;51.094;5.880;2023-08-08T12:32:21;22.78;118.99
66102;HTU21D;52883;51.094;5.880;2023-08-08T12:34:50;23.32;118.99
66102;HTU21D;52883;51.094;5.880;2023-08-08T12:37:16;23.43;118.99
66102;HTU21D;52883;51.094;5.880;2023-08-08T12:39:43;23.56;118.99
66102;HTU21D;52883;51.094;5.880;2023-08-08T12:42:08;23.64;118.99
66102;HTU21D;52883;51.094;5.880;2023-08-08T12:44:34;23.59;118.99
66102;HTU21D;52883;51.094;5.880;2023-08-08T12:47:00;22.86;118.99
66102;HTU21D;52883;51.094;5.880;2023-08-08T12:49:25;22.10;118.99
66102;HTU21D;52883;51.094;5.880;2023-08-08T12:51:52;21.46;118.99
66102;HTU21D;52883;51.094;5.880;2023-08-08T12:54:18;20.88;118.99
66102;HTU21D;52883;51.094;5.880;2023-08-08T12:56:44;20.85;118.99
66102;HTU21D;52883;51.094;5.880;2023-08-08T12:59:09;21.64;118.99
66102;HTU21D;52883;51.094;5.880;2023-08-08T13:01:36;22.22;118.99
66102;HTU21D;52883;51.094;5.880;2023-08-08T13:04:01;22.26;118.99
66102;HTU21D;52883;51.094;5.880;2023-08-08T13:06:27;21.81;118.99
66102;HTU21D;52883;51.094;5.880;2023-08-08T13:08:52;21.25;118.99
66102;HTU21D;52883;51.094;5.880;2023-08-08T13:11:18;20.92;118.99
66102;HTU21D;52883;51.094;5.880;2023-08-08T13:13:44;20.69;118.99
66102;HTU21D;52883;51.094;5.880;2023-08-08T13:16:09;20.65;118.99
66102;HTU21D;52883;51.094;5.880;2023-08-08T13:18:36;20.87;118.99
66102;HTU21D;52883;51.094;5.880;2023-08-08T13:21:02;21.34;118.99
66102;HTU21D;52883;51.094;5.880;2023-08-08T13:23:28;21.77;118.99
66102;HTU21D;52883;51.094;5.880;2023-08-08T13:25:55;22.37;118.99
66102;HTU21D;52883;51.094;5.880;2023-08-08T13:28:21;22.95;118.99
66102;HTU21D;52883;51.094;5.880;2023-08-08T13:30:47;23.32;118.99
66102;HTU21D;52883;51.094;5.880;2023-08-08T13:33:12;23.69;118.99
66102;HTU21D;52883;51.094;5.880;2023-08-08T13:35:39;23.95;118.99
66102;HTU21D;52883;51.094;5.880;2023-08-08T13:38:04;24.10;118.99
66102;HTU21D;52883;51.094;5.880;2023-08-08T13:40:30;24.43;118.99
66102;HTU21D;52883;51.094;5.880;2023-08-08T13:42:55;24.72;118.99
66102;HTU21D;52883;51.094;5.880;2023-08-08T13:45:21;24.97;98.33
66102;HTU21D;52883;51.094;5.880;2023-08-08T13:47:49;25.16;87.41
66102;HTU21D;52883;51.094;5.880;2023-08-08T13:50:15;25.57;103.03
66102;HTU21D;52883;51.094;5.880;2023-08-08T13:52:41;25.97;78.63
66102;HTU21D;52883;51.094;5.880;2023-08-08T13:55:07;26.17;84.39
66102;HTU21D;52883;51.094;5.880;2023-08-08T13:57:34;26.25;88.84
66102;HTU21D;52883;51.094;5.880;2023-08-08T14:00:00;26.03;80.69
66102;HTU21D;52883;51.094;5.880;2023-08-08T14:02:25;25.71;68.34
66102;HTU21D;52883;51.094;5.880;2023-08-08T14:04:51;25.34;78.08
66102;HTU21D;52883;51.094;5.880;2023-08-08T14:07:18;25.02;101.75
66102;HTU21D;52883;51.094;5.880;2023-08-08T14:09:44;25.07;94.98
66102;HTU21D;52883;51.094;5.880;2023-08-08T14:12:09;25.34;97.09
66102;HTU21D;52883;51.094;5.880;2023-08-08T14:14:35;25.93;81.59
66102;HTU21D;52883;51.094;5.880;2023-08-08T14:17:01;26.34;59.59
66102;HTU21D;52883;51.094;5.880;2023-08-08T14:19:26;26.49;68.23
66102;HTU21D;52883;51.094;5.880;2023-08-08T14:21:52;26.63;90.53
66102;HTU21D;52883;51.094;5.880;2023-08-08T14:24:17;26.72;64.18
66102;HTU21D;52883;51.094;5.880;2023-08-08T14:26:44;26.40;76.21
66102;HTU21D;52883;51.094;5.880;2023-08-08T14:29:10;26.19;73.19
66102;HTU21D;52883;51.094;5.880;2023-08-08T14:31:35;26.04;82.03
66102;HTU21D;52883;51.094;5.880;2023-08-08T14:34:01;25.68;68.72
66102;HTU21D;52883;51.094;5.880;2023-08-08T14:36:27;25.25;74.05
66102;HTU21D;52883;51.094;5.880;2023-08-08T14:38:52;25.21;84.87
66102;HTU21D;52883;51.094;5.880;2023-08-08T14:41:18;25.33;95.51
66102;HTU21D;52883;51.094;5.880;2023-08-08T14:43:44;25.64;64.59
66102;HTU21D;52883;51.094;5.880;2023-08-08T14:46:09;25.94;80.74
66102;HTU21D;52883;51.094;5.880;2023-08-08T14:48:35;25.97;61.21
66102;HTU21D;52883;51.094;5.880;2023-08-08T14:51:02;25.92;61.65
66102;HTU21D;52883;51.094;5.880;2023-08-08T14:53:29;25.69;65.91
66102;HTU21D;52883;51.094;5.880;2023-08-08T14:55:54;25.38;61.80
66102;HTU21D;52883;51.094;5.880;2023-08-08T14:58:20;24.86;64.82
66102;HTU21D;52883;51.094;5.880;2023-08-08T15:00:46;24.29;69.02
66102;HTU21D;52883;51.094;5.880;2023-08-08T15:03:13;23.86;71.23